createdAt,value
2019-05-14T00:00:46.896Z,2.27
2019-05-14T00:03:15.874Z,2.12
2019-05-14T00:05:45.135Z,1.72
2019-05-14T00:08:17.181Z,1.67
2019-05-14T00:10:43.517Z,1.40
2019-05-14T00:13:12.561Z,1.30
2019-05-14T00:15:41.904Z,1.20
2019-05-14T00:18:11.791Z,0.90
2019-05-14T00:20:41.773Z,1.20
2019-05-14T00:23:08.683Z,1.32
2019-05-14T00:25:38.631Z,1.15
2019-05-14T00:28:07.623Z,0.90
2019-05-14T00:30:36.619Z,1.50
2019-05-14T00:33:05.700Z,1.30
2019-05-14T00:35:35.847Z,1.20
2019-05-14T00:38:03.635Z,1.02
2019-05-14T00:40:32.560Z,1.32
2019-05-14T00:43:02.624Z,1.50
2019-05-14T00:45:31.331Z,1.12
2019-05-14T00:48:01.466Z,1.20
2019-05-14T00:50:28.774Z,1.37
2019-05-14T00:52:57.707Z,1.87
2019-05-14T00:55:27.843Z,1.95
2019-05-14T00:57:56.951Z,1.20
2019-05-14T01:00:26.059Z,1.30
2019-05-14T01:02:54.939Z,1.35
2019-05-14T01:05:24.267Z,1.90
2019-05-14T01:07:53.196Z,1.52
2019-05-14T01:10:22.627Z,1.95
2019-05-14T01:12:52.034Z,1.30
2019-05-14T01:15:21.667Z,1.62
2019-05-14T01:17:51.386Z,1.60
2019-05-14T01:20:21.160Z,1.47
2019-05-14T01:22:48.003Z,1.45
2019-05-14T01:25:17.287Z,1.73
2019-05-14T01:27:46.199Z,1.75
2019-05-14T01:30:15.175Z,1.70
2019-05-14T01:32:44.383Z,1.92
2019-05-14T01:35:13.267Z,1.87
2019-05-14T01:37:42.243Z,1.57
2019-05-14T01:40:12.407Z,1.90
2019-05-14T01:42:41.794Z,1.60
2019-05-14T01:45:24.436Z,1.30
2019-05-14T01:47:41.531Z,1.30
2019-05-14T01:50:11.308Z,1.55
2019-05-14T01:52:41.608Z,1.50
2019-05-14T01:55:11.202Z,1.45
2019-05-14T01:57:38.146Z,1.30
2019-05-14T02:00:07.343Z,0.95
2019-05-14T02:02:36.654Z,1.02
2019-05-14T02:05:05.535Z,1.00
2019-05-14T02:07:34.139Z,1.07
2019-05-14T02:10:02.819Z,0.85
2019-05-14T02:12:31.703Z,1.12
2019-05-14T02:15:01.912Z,0.98
2019-05-14T02:17:29.223Z,1.00
2019-05-14T02:19:57.859Z,1.00
2019-05-14T02:22:26.734Z,0.82
2019-05-14T02:24:55.300Z,0.98
2019-05-14T02:27:23.954Z,0.90
2019-05-14T02:29:52.498Z,0.75
2019-05-14T02:32:21.163Z,0.68
2019-05-14T02:34:50.222Z,0.70
2019-05-14T02:37:19.476Z,0.88
2019-05-14T02:39:50.118Z,0.98
2019-05-14T02:42:19.138Z,1.10
2019-05-14T02:45:19.521Z,1.20
2019-05-14T02:47:45.071Z,1.20
2019-05-14T02:50:13.875Z,1.20
2019-05-14T02:52:42.583Z,1.17
2019-05-14T02:55:11.332Z,1.20
2019-05-14T02:57:40.131Z,1.60
2019-05-14T03:00:10.138Z,1.32
2019-05-14T03:02:40.265Z,1.47
2019-05-14T03:05:09.549Z,1.45
2019-05-14T03:07:38.991Z,1.35
2019-05-14T03:10:04.811Z,1.42
2019-05-14T03:12:33.595Z,1.37
2019-05-14T03:15:02.284Z,1.50
2019-05-14T03:17:30.977Z,1.40
2019-05-14T03:20:00.144Z,1.45
2019-05-14T03:22:42.952Z,1.85
2019-05-14T03:24:59.773Z,1.10
2019-05-14T03:27:25.882Z,1.40
2019-05-14T03:29:54.823Z,1.52
2019-05-14T03:32:23.484Z,1.37
2019-05-14T03:34:53.711Z,1.27
2019-05-14T03:37:23.693Z,1.30
2019-05-14T03:39:49.945Z,1.45
2019-05-14T03:42:19.227Z,1.47
2019-05-14T03:44:48.995Z,1.35
2019-05-14T03:47:15.886Z,1.50
2019-05-14T03:49:44.666Z,1.55
2019-05-14T03:52:13.338Z,1.27
2019-05-14T03:54:42.019Z,1.60
2019-05-14T03:57:10.859Z,1.17
2019-05-14T03:59:40.601Z,1.30
2019-05-14T04:02:09.738Z,1.00
2019-05-14T04:04:39.347Z,1.00
2019-05-14T04:07:09.355Z,1.20
2019-05-14T04:09:34.741Z,1.02
2019-05-14T04:12:03.655Z,1.30
2019-05-14T04:14:32.560Z,1.07
2019-05-14T04:17:09.578Z,1.10
2019-05-14T04:19:31.137Z,0.93
2019-05-14T04:22:00.059Z,1.00
2019-05-14T04:24:29.595Z,1.12
2019-05-14T04:27:07.136Z,1.20
2019-05-14T04:29:30.694Z,1.02
2019-05-14T04:31:59.355Z,1.07
2019-05-14T04:34:25.175Z,1.50
2019-05-14T04:36:53.863Z,1.00
2019-05-14T04:39:22.870Z,1.45
2019-05-14T04:41:51.520Z,1.55
2019-05-14T04:44:20.149Z,1.62
2019-05-14T04:46:49.535Z,1.32
2019-05-14T04:49:19.890Z,1.60
2019-05-14T04:51:46.159Z,1.90
2019-05-14T04:54:15.113Z,2.02
2019-05-14T04:56:44.278Z,1.62
2019-05-14T04:59:13.322Z,1.50
2019-05-14T05:01:41.836Z,1.40
2019-05-14T05:04:10.816Z,1.50
2019-05-14T05:06:39.962Z,1.57
2019-05-14T05:09:09.605Z,1.20
2019-05-14T05:11:39.512Z,1.37
2019-05-14T05:14:08.816Z,1.37
2019-05-14T05:16:35.371Z,1.50
2019-05-14T05:19:04.994Z,1.42
2019-05-14T05:21:33.549Z,1.35
2019-05-14T05:24:03.373Z,1.00
2019-05-14T05:26:32.361Z,1.80
2019-05-14T05:29:06.589Z,1.75
2019-05-14T05:31:29.677Z,1.95
2019-05-14T05:33:58.335Z,1.45
2019-05-14T05:36:28.873Z,1.60
2019-05-14T05:38:55.513Z,1.62
2019-05-14T05:41:24.010Z,1.30
2019-05-14T05:43:52.537Z,1.55
2019-05-14T05:46:21.073Z,1.20
2019-05-14T05:48:49.644Z,1.85
2019-05-14T05:51:18.845Z,1.90
2019-05-14T05:53:48.354Z,1.75
2019-05-14T05:56:15.493Z,1.40
2019-05-14T05:58:44.030Z,1.50
2019-05-14T06:01:12.745Z,1.57
2019-05-14T06:03:41.329Z,1.80
2019-05-14T06:06:13.613Z,1.53
2019-05-14T06:08:38.940Z,1.37
2019-05-14T06:11:08.370Z,1.40
2019-05-14T06:13:35.817Z,1.50
2019-05-14T06:16:04.930Z,1.55
2019-05-14T06:18:34.506Z,2.55
2019-05-14T06:21:02.307Z,1.30
2019-05-14T06:23:30.930Z,1.17
2019-05-14T06:25:59.942Z,1.25
2019-05-14T06:28:33.126Z,1.22
2019-05-14T06:30:58.727Z,1.20
2019-05-14T06:33:25.302Z,1.30
2019-05-14T06:35:53.765Z,1.05
2019-05-14T06:38:22.426Z,1.15
2019-05-14T06:40:50.944Z,0.70
2019-05-14T06:43:19.507Z,1.10
2019-05-14T06:45:49.493Z,0.90
2019-05-14T06:48:29.751Z,0.80
2019-05-14T06:50:45.864Z,1.25
2019-05-14T06:53:14.438Z,1.30
2019-05-14T06:55:42.956Z,1.27
2019-05-14T06:58:11.517Z,1.30
2019-05-14T07:00:40.400Z,1.10
2019-05-14T07:03:09.310Z,1.00
2019-05-14T07:05:39.030Z,1.12
2019-05-14T07:08:08.997Z,1.00
2019-05-14T07:10:35.240Z,1.40
2019-05-14T07:13:04.730Z,1.35
2019-05-14T07:15:33.350Z,1.52
2019-05-14T07:18:02.005Z,1.42
2019-05-14T07:20:30.685Z,1.52
2019-05-14T07:22:59.713Z,1.77
2019-05-14T07:25:28.691Z,1.25
2019-05-14T07:27:58.296Z,0.98
2019-05-14T07:30:25.349Z,1.60
2019-05-14T07:32:54.161Z,1.52
2019-05-14T07:35:22.673Z,1.62
2019-05-14T07:37:51.554Z,1.30
2019-05-14T07:40:20.189Z,1.30
2019-05-14T07:42:48.920Z,1.98
2019-05-14T07:45:18.480Z,2.17
2019-05-14T07:47:46.085Z,1.62
2019-05-14T07:50:14.966Z,1.20
2019-05-14T07:52:49.555Z,1.32
2019-05-14T07:55:12.137Z,1.20
2019-05-14T07:57:40.640Z,1.17
2019-05-14T08:00:09.378Z,1.07
2019-05-14T08:02:38.112Z,1.20
2019-05-14T08:05:08.613Z,1.17
2019-05-14T08:07:35.248Z,1.15
2019-05-14T08:10:04.099Z,1.32
2019-05-14T08:12:32.636Z,1.00
2019-05-14T08:15:14.106Z,1.10
2019-05-14T08:17:29.842Z,1.30
2019-05-14T08:19:58.421Z,1.35
2019-05-14T08:22:29.139Z,1.10
2019-05-14T08:24:58.004Z,1.35
2019-05-14T08:27:27.941Z,1.35
2019-05-14T08:29:53.864Z,1.07
2019-05-14T08:32:22.395Z,1.40
2019-05-14T08:34:50.903Z,1.00
2019-05-14T08:37:19.382Z,1.32
2019-05-14T08:39:48.585Z,1.20
2019-05-14T08:42:18.516Z,1.20
2019-05-14T08:44:48.030Z,1.22
2019-05-14T08:47:13.705Z,1.98
2019-05-14T08:49:46.478Z,1.17
2019-05-14T08:52:10.823Z,1.20
2019-05-14T08:54:39.439Z,1.07
2019-05-14T08:57:09.867Z,1.37
2019-05-14T08:59:39.347Z,1.17
2019-05-14T09:02:06.648Z,1.10
2019-05-14T09:04:33.621Z,1.35
2019-05-14T09:07:02.569Z,0.98
2019-05-14T09:09:31.074Z,1.32
2019-05-14T09:12:00.013Z,1.40
2019-05-14T09:14:28.274Z,1.60
2019-05-14T09:16:59.720Z,1.20
2019-05-14T09:19:25.618Z,1.30
2019-05-14T09:21:54.650Z,1.67
2019-05-14T09:24:23.507Z,1.65
2019-05-14T09:26:52.347Z,1.50
2019-05-14T09:29:25.917Z,1.22
2019-05-14T09:31:49.763Z,1.35
2019-05-14T09:34:19.634Z,1.62
2019-05-14T09:36:48.922Z,1.10
2019-05-14T09:39:15.863Z,1.00
2019-05-14T09:41:44.427Z,1.45
2019-05-14T09:44:13.051Z,1.42
2019-05-14T09:46:42.257Z,1.17
2019-05-14T09:49:10.743Z,1.60
2019-05-14T09:51:39.227Z,1.30
2019-05-14T09:54:08.618Z,1.15
2019-05-14T09:56:36.367Z,1.80
2019-05-14T09:59:04.898Z,1.20
2019-05-14T10:01:33.731Z,1.30
2019-05-14T10:04:02.365Z,1.07
2019-05-14T10:06:31.243Z,0.80
2019-05-14T10:08:59.874Z,1.30
2019-05-14T10:11:28.911Z,1.47
2019-05-14T10:13:57.169Z,1.22
2019-05-14T10:16:25.752Z,1.52
2019-05-14T10:18:54.251Z,1.50
2019-05-14T10:21:22.991Z,2.45
2019-05-14T10:23:51.507Z,3.45
2019-05-14T10:26:20.096Z,1.83
2019-05-14T10:28:48.983Z,1.80
2019-05-14T10:31:18.370Z,1.40
2019-05-14T10:33:48.592Z,1.50
2019-05-14T10:36:15.009Z,1.30
2019-05-14T10:38:43.552Z,1.90
2019-05-14T10:41:12.127Z,1.35
2019-05-14T10:43:40.895Z,1.65
2019-05-14T10:46:09.408Z,2.42
2019-05-14T10:48:39.519Z,1.40
2019-05-14T10:51:06.577Z,1.40
2019-05-14T10:53:35.084Z,1.20
2019-05-14T10:56:03.699Z,1.57
2019-05-14T10:58:32.527Z,1.72
2019-05-14T11:01:01.007Z,1.37
2019-05-14T11:03:30.116Z,1.17
2019-05-14T11:05:58.823Z,1.20
2019-05-14T11:08:29.377Z,1.37
2019-05-14T11:10:55.669Z,1.30
2019-05-14T11:13:24.243Z,1.17
2019-05-14T11:15:52.735Z,1.20
2019-05-14T11:18:21.247Z,1.12
2019-05-14T11:20:51.536Z,1.15
2019-05-14T11:23:18.622Z,1.10
2019-05-14T11:25:48.766Z,1.42
2019-05-14T11:28:15.550Z,1.30
2019-05-14T11:30:44.113Z,1.22
2019-05-14T11:33:12.663Z,1.17
2019-05-14T11:35:41.199Z,0.90
2019-05-14T11:38:28.006Z,1.52
2019-05-14T11:40:38.741Z,1.67
2019-05-14T11:43:08.366Z,1.55
2019-05-14T11:45:39.004Z,1.20
2019-05-14T11:48:04.823Z,1.27
2019-05-14T11:50:33.359Z,1.30
2019-05-14T11:53:01.879Z,1.25
2019-05-14T11:55:30.394Z,1.00
2019-05-14T11:57:58.996Z,1.35
2019-05-14T12:00:29.549Z,1.25
2019-05-14T12:02:58.590Z,1.30
2019-05-14T12:05:25.350Z,1.90
2019-05-14T12:07:53.889Z,1.40
2019-05-14T12:10:22.450Z,1.55
2019-05-14T12:12:51.230Z,1.52
2019-05-14T12:15:20.427Z,1.35
2019-05-14T12:17:51.201Z,1.30
2019-05-14T12:20:17.938Z,1.10
2019-05-14T12:22:48.784Z,1.02
2019-05-14T12:25:15.258Z,1.32
2019-05-14T12:27:43.779Z,1.22
2019-05-14T12:30:12.379Z,1.50
2019-05-14T12:32:41.089Z,1.30
2019-05-14T12:35:09.657Z,1.55
2019-05-14T12:37:39.028Z,1.35
2019-05-14T12:40:08.837Z,1.10
2019-05-14T12:42:35.565Z,1.10
2019-05-14T12:45:06.114Z,1.17
2019-05-14T12:47:34.634Z,1.37
2019-05-14T12:50:03.181Z,1.20
2019-05-14T12:52:31.653Z,1.30
2019-05-14T12:55:00.241Z,1.42
2019-05-14T12:57:30.558Z,1.60
2019-05-14T12:59:59.078Z,1.07
2019-05-14T13:02:29.454Z,1.65
2019-05-14T13:04:56.254Z,1.42
2019-05-14T13:07:24.733Z,1.57
2019-05-14T13:09:53.317Z,1.40
2019-05-14T13:12:21.846Z,1.02
2019-05-14T13:14:50.759Z,1.37
2019-05-14T13:17:19.582Z,1.50
2019-05-14T13:19:48.722Z,1.27
2019-05-14T13:22:20.827Z,2.15
2019-05-14T13:24:45.316Z,1.52
2019-05-14T13:27:13.834Z,1.40
2019-05-14T13:29:42.641Z,1.20
2019-05-14T13:32:12.381Z,1.62
2019-05-14T13:34:39.817Z,1.70
2019-05-14T13:37:08.583Z,2.10
2019-05-14T13:39:39.941Z,1.92
2019-05-14T13:42:06.032Z,1.67
2019-05-14T13:44:35.052Z,1.85
2019-05-14T13:47:03.662Z,1.80
2019-05-14T13:49:32.309Z,1.40
2019-05-14T13:52:01.338Z,1.40
2019-05-14T13:54:31.654Z,1.20
2019-05-14T13:56:58.752Z,1.20
2019-05-14T13:59:27.539Z,1.67
2019-05-14T14:01:58.874Z,1.30
2019-05-14T14:04:24.988Z,1.52
2019-05-14T14:06:53.604Z,1.10
2019-05-14T14:09:22.229Z,1.52
2019-05-14T14:11:50.835Z,1.90
2019-05-14T14:14:20.256Z,1.42
2019-05-14T14:16:49.015Z,1.60
2019-05-14T14:19:18.768Z,1.77
2019-05-14T14:21:49.243Z,1.47
2019-05-14T14:24:19.787Z,1.70
2019-05-14T14:26:48.776Z,1.55
2019-05-14T14:29:18.424Z,1.57
2019-05-14T14:31:44.530Z,1.98
2019-05-14T14:34:13.359Z,1.80
2019-05-14T14:36:42.020Z,2.27
2019-05-14T14:39:11.063Z,1.75
2019-05-14T14:41:39.686Z,1.80
2019-05-14T14:44:08.957Z,1.80
2019-05-14T14:46:39.096Z,1.55
2019-05-14T14:49:06.019Z,2.05
2019-05-14T14:51:40.932Z,1.75
2019-05-14T14:54:10.829Z,1.45
2019-05-14T14:56:31.972Z,1.92
2019-05-14T14:59:00.728Z,3.05
2019-05-14T15:01:30.279Z,1.65
2019-05-14T15:03:59.984Z,1.35
2019-05-14T15:06:30.350Z,1.32
2019-05-14T15:08:55.676Z,1.65
2019-05-14T15:11:24.478Z,1.77
2019-05-14T15:13:53.244Z,1.82
2019-05-14T15:16:21.982Z,1.35
2019-05-14T15:18:50.608Z,1.72
2019-05-14T15:21:19.542Z,1.22
2019-05-14T15:24:03.012Z,1.32
2019-05-14T15:26:19.347Z,1.60
2019-05-14T15:28:46.020Z,1.32
2019-05-14T15:31:14.808Z,1.50
2019-05-14T15:33:43.824Z,1.32
2019-05-14T15:36:12.802Z,1.60
2019-05-14T15:38:41.487Z,1.37
2019-05-14T15:41:13.482Z,1.80
2019-05-14T15:43:39.694Z,1.85
2019-05-14T15:46:08.815Z,2.35
2019-05-14T15:48:39.443Z,1.93
2019-05-14T15:51:11.515Z,1.30
2019-05-14T15:53:35.252Z,1.60
2019-05-14T15:56:05.131Z,1.55
2019-05-14T15:58:33.797Z,2.00
2019-05-14T16:01:02.729Z,2.02
2019-05-14T16:03:31.399Z,1.37
2019-05-14T16:06:00.136Z,1.40
2019-05-14T16:08:29.554Z,1.40
2019-05-14T16:11:00.081Z,1.60
2019-05-14T16:13:28.469Z,1.87
2019-05-14T16:15:55.124Z,2.30
2019-05-14T16:18:26.011Z,1.50
2019-05-14T16:20:55.052Z,1.27
2019-05-14T16:23:23.760Z,1.50
2019-05-14T16:25:52.451Z,1.80
2019-05-14T16:28:21.220Z,1.57
2019-05-14T16:30:50.056Z,2.05
2019-05-14T16:33:18.931Z,1.85
2019-05-14T16:35:50.971Z,1.85
2019-05-14T16:38:22.937Z,1.75
2019-05-14T16:40:49.021Z,2.05
2019-05-14T16:43:19.122Z,2.52
2019-05-14T16:45:45.981Z,2.50
2019-05-14T16:48:14.682Z,2.52
2019-05-14T16:50:43.476Z,2.20
2019-05-14T16:53:12.558Z,2.70
2019-05-14T16:55:41.124Z,2.62
2019-05-14T16:58:10.113Z,3.33
2019-05-14T17:00:38.802Z,3.12
2019-05-14T17:03:08.317Z,2.70
2019-05-14T17:05:38.196Z,4.87
2019-05-14T17:08:09.787Z,2.90
2019-05-14T17:10:35.457Z,2.60
2019-05-14T17:13:04.746Z,2.05
2019-05-14T17:15:33.522Z,2.55
2019-05-14T17:18:02.202Z,2.72
2019-05-14T17:20:30.790Z,2.27
2019-05-14T17:22:59.543Z,2.15
2019-05-14T17:25:30.540Z,2.08
2019-05-14T17:27:59.166Z,2.62
2019-05-14T17:30:25.603Z,2.55
2019-05-14T17:32:54.257Z,2.83
2019-05-14T17:35:22.937Z,3.33
2019-05-14T17:37:51.577Z,3.25
2019-05-14T17:40:20.205Z,2.40
2019-05-14T17:42:49.100Z,2.40
2019-05-14T17:45:17.755Z,2.83
2019-05-14T17:47:48.893Z,3.42
2019-05-14T17:50:15.179Z,2.60
2019-05-14T17:52:45.263Z,2.27
2019-05-14T17:55:12.735Z,2.47
2019-05-14T17:57:47.979Z,2.67
2019-05-14T18:00:10.343Z,2.30
2019-05-14T18:02:38.982Z,2.40
2019-05-14T18:05:09.426Z,2.22
2019-05-14T18:07:36.300Z,2.15
2019-05-14T18:10:08.542Z,2.12
2019-05-14T18:12:34.179Z,2.22
2019-05-14T18:15:02.783Z,2.40
2019-05-14T18:17:31.667Z,2.87
2019-05-14T18:20:00.187Z,2.92
2019-05-14T18:22:28.882Z,3.00
2019-05-14T18:24:59.241Z,3.17
2019-05-14T18:27:29.115Z,2.60
2019-05-14T18:29:55.240Z,2.75
2019-05-14T18:32:24.269Z,2.05
2019-05-14T18:34:52.905Z,2.02
2019-05-14T18:37:21.495Z,2.27
2019-05-14T18:39:50.081Z,2.55
2019-05-14T18:42:19.185Z,2.87
2019-05-14T18:44:49.879Z,3.77
2019-05-14T18:47:20.002Z,3.17
2019-05-14T18:49:48.601Z,3.10
2019-05-14T18:52:18.292Z,3.37
2019-05-14T18:54:44.545Z,3.45
2019-05-14T18:57:13.181Z,3.17
2019-05-14T18:59:41.844Z,3.90
2019-05-14T19:02:10.564Z,2.40
2019-05-14T19:04:39.225Z,2.90
2019-05-14T19:07:07.921Z,2.70
2019-05-14T19:09:38.672Z,2.55
2019-05-14T19:12:05.246Z,3.50
2019-05-14T19:14:33.914Z,3.92
2019-05-14T19:17:02.531Z,3.40
2019-05-14T19:19:31.223Z,3.10
2019-05-14T19:21:59.908Z,2.62
2019-05-14T19:24:28.776Z,2.08
2019-05-14T19:26:59.505Z,2.00
2019-05-14T19:29:28.036Z,2.35
2019-05-14T19:31:54.698Z,1.95
2019-05-14T19:34:23.286Z,2.20
2019-05-14T19:36:51.890Z,2.42
2019-05-14T19:39:21.091Z,2.37
2019-05-14T19:41:49.790Z,2.22
2019-05-14T19:44:19.161Z,1.98
2019-05-14T19:46:49.271Z,1.57
2019-05-14T19:49:19.534Z,2.00
2019-05-14T19:51:48.433Z,1.95
2019-05-14T19:54:19.532Z,1.87
2019-05-14T19:56:53.159Z,1.50
2019-05-14T19:59:14.710Z,1.75
2019-05-14T20:01:43.443Z,1.85
2019-05-14T20:04:12.144Z,1.70
2019-05-14T20:06:40.846Z,1.85
2019-05-14T20:09:09.760Z,2.30
2019-05-14T20:11:39.630Z,4.12
2019-05-14T20:14:06.828Z,4.15
2019-05-14T20:16:35.470Z,3.08
2019-05-14T20:19:04.597Z,2.47
2019-05-14T20:21:33.205Z,2.15
2019-05-14T20:24:01.806Z,2.17
2019-05-14T20:26:30.462Z,2.35
2019-05-14T20:28:59.179Z,2.20
2019-05-14T20:31:29.544Z,2.50
2019-05-14T20:33:56.281Z,2.42
2019-05-14T20:36:24.880Z,2.08
2019-05-14T20:38:53.409Z,1.67
2019-05-14T20:41:22.004Z,2.15
2019-05-14T20:43:50.585Z,2.20
2019-05-14T20:46:19.161Z,1.80
2019-05-14T20:48:50.110Z,2.27
2019-05-14T20:51:18.748Z,2.22
2019-05-14T20:53:48.739Z,1.60
2019-05-14T20:56:15.976Z,2.00
2019-05-14T20:58:44.632Z,1.85
2019-05-14T21:01:13.207Z,1.60
2019-05-14T21:03:44.006Z,1.67
2019-05-14T21:06:10.505Z,1.85
2019-05-14T21:08:39.070Z,1.62
2019-05-14T21:11:08.277Z,1.70
2019-05-14T21:13:36.553Z,2.22
2019-05-14T21:16:05.147Z,1.70
2019-05-14T21:18:35.369Z,2.02
2019-05-14T21:21:02.477Z,1.72
2019-05-14T21:23:31.021Z,1.72
2019-05-14T21:25:59.873Z,1.95
2019-05-14T21:28:30.096Z,1.82
2019-05-14T21:30:59.125Z,1.87
2019-05-14T21:33:25.724Z,2.10
2019-05-14T21:35:54.281Z,2.25
2019-05-14T21:38:22.812Z,1.93
2019-05-14T21:40:51.477Z,1.70
2019-05-14T21:43:20.761Z,2.37
2019-05-14T21:45:49.451Z,2.00
2019-05-14T21:48:19.932Z,2.17
2019-05-14T21:50:46.794Z,1.90
2019-05-14T21:53:15.404Z,1.70
2019-05-14T21:55:44.013Z,1.98
2019-05-14T21:58:12.581Z,2.22
2019-05-14T22:00:41.980Z,2.10
2019-05-14T22:03:10.549Z,2.15
2019-05-14T22:05:39.481Z,2.12
2019-05-14T22:08:08.835Z,1.75
2019-05-14T22:10:39.283Z,1.90
2019-05-14T22:13:05.477Z,2.12
2019-05-14T22:15:34.481Z,1.77
2019-05-14T22:18:03.261Z,2.30
2019-05-14T22:20:31.917Z,1.65
2019-05-14T22:23:00.581Z,1.60
2019-05-14T22:25:29.252Z,1.77
2019-05-14T22:28:11.637Z,1.82
2019-05-14T22:30:28.813Z,1.73
2019-05-14T22:32:55.413Z,2.08
2019-05-14T22:35:24.052Z,1.90
2019-05-14T22:37:52.752Z,2.00
2019-05-14T22:40:21.324Z,2.10
2019-05-14T22:42:49.989Z,2.00
2019-05-14T22:45:18.708Z,2.03
2019-05-14T22:47:49.012Z,1.65
2019-05-14T22:50:18.278Z,1.77
2019-05-14T22:52:44.818Z,1.90
2019-05-14T22:55:13.441Z,1.80
2019-05-14T22:57:42.037Z,2.45
2019-05-14T23:00:11.044Z,2.02
2019-05-14T23:02:39.772Z,1.90
2019-05-14T23:05:08.532Z,1.87
2019-05-14T23:07:38.492Z,1.70
2019-05-14T23:10:06.116Z,2.17
2019-05-14T23:12:34.692Z,2.15
2019-05-14T23:15:03.354Z,2.08
2019-05-14T23:17:32.000Z,1.90
2019-05-14T23:20:00.661Z,2.00
2019-05-14T23:22:29.731Z,2.20
2019-05-14T23:24:59.210Z,2.02
2019-05-14T23:27:29.221Z,1.77
2019-05-14T23:29:55.949Z,1.82
2019-05-14T23:32:24.588Z,1.82
2019-05-14T23:34:53.286Z,1.75
2019-05-14T23:37:21.975Z,1.90
2019-05-14T23:39:50.720Z,2.10
2019-05-14T23:42:19.509Z,1.80
2019-05-14T23:44:49.218Z,2.50
2019-05-14T23:47:19.183Z,1.50
2019-05-14T23:49:45.527Z,1.85
2019-05-14T23:52:14.196Z,1.80
2019-05-14T23:54:42.824Z,2.12
2019-05-14T23:57:11.712Z,2.02
2019-05-14T23:59:40.644Z,2.08
